Time;durP1;ratioP1;P1;durP2;ratioP2;P2;SDS_P1;SDS_P2;PMS_P1;PMS_P2;Temp;Humidity;BMP_temperature;BMP_pressure;BME280_temperature;BME280_humidity;BME280_pressure;Samples;Min_cycle;Max_cycle;Signal;HPM_P1;HPM_P2
2021/03/24 00:01:45;;;;;;;12.13;8.35;;;;;;;6.18;60.83;100247.00;4441684;32;34944;-89
2021/03/24 00:04:13;;;;;;;13.13;8.05;;;;;;;6.33;60.23;100248.22;4441826;32;34267;-89
2021/03/24 00:06:41;;;;;;;15.00;8.85;;;;;;;5.85;61.84;100242.72;4454673;32;33851;-89
2021/03/24 00:09:12;;;;;;;15.13;8.90;;;;;;;5.93;61.70;100236.06;4454279;32;35513;-89
2021/03/24 00:11:39;;;;;;;14.48;8.77;;;;;;;5.80;62.21;100227.94;4454616;32;34785;-89
2021/03/24 00:14:06;;;;;;;15.88;10.07;;;;;;;5.85;62.03;100236.69;4428883;32;33170;-91
2021/03/24 00:16:33;;;;;;;19.23;9.70;;;;;;;5.48;63.48;100238.28;4441703;32;34184;-90
2021/03/24 00:19:01;;;;;;;16.48;9.60;;;;;;;5.68;62.71;100243.94;4441786;32;35357;-89
2021/03/24 00:21:29;;;;;;;15.45;9.05;;;;;;;6.10;61.40;100250.25;4454117;32;33871;-89
2021/03/24 00:23:56;;;;;;;15.35;9.93;;;;;;;6.22;61.00;100249.69;4441937;32;33228;-86
2021/03/24 00:26:25;;;;;;;16.25;9.65;;;;;;;6.07;61.50;100245.00;4441766;32;33652;-86
2021/03/24 00:28:53;;;;;;;16.55;10.10;;;;;;;5.87;62.12;100238.47;4441625;32;34229;-86
2021/03/24 00:31:21;;;;;;;15.38;9.15;;;;;;;6.04;61.52;100244.03;4454195;32;35182;-86
2021/03/24 00:33:49;;;;;;;15.77;9.02;;;;;;;6.31;60.64;100244.72;4441322;32;35018;-86
2021/03/24 00:36:17;;;;;;;16.83;10.73;;;;;;;6.62;59.63;100242.03;4454184;32;33706;-86
2021/03/24 00:38:45;;;;;;;17.67;10.18;;;;;;;6.51;59.96;100251.22;4441675;32;35033;-86
2021/03/24 00:41:12;;;;;;;15.85;10.23;;;;;;;6.31;60.61;100236.09;4428898;32;35023;-86
2021/03/24 00:43:39;;;;;;;15.13;9.27;;;;;;;6.40;60.35;100239.78;4454369;32;34372;-86
2021/03/24 00:46:06;;;;;;;16.67;9.98;;;;;;;6.63;59.62;100236.00;4455362;32;35312;-85
2021/03/24 00:48:35;;;;;;;14.00;9.25;;;;;;;6.28;60.72;100220.53;4454113;32;34261;-86
2021/03/24 00:51:05;;;;;;;19.35;10.23;;;;;;;6.05;61.53;100225.16;4454081;32;34024;-85
2021/03/24 00:53:34;;;;;;;18.05;10.68;;;;;;;6.19;60.96;100233.22;4441345;32;32232;-86
2021/03/24 00:56:02;;;;;;;17.02;9.82;;;;;;;6.37;60.48;100238.84;4440854;32;34987;-84
2021/03/24 00:58:29;;;;;;;14.38;9.32;;;;;;;6.61;59.26;100241.97;4454837;32;34228;-86
2021/03/24 01:00:56;;;;;;;16.65;10.15;;;;;;;6.22;60.75;100234.19;4428099;32;35030;-86
2021/03/24 01:03:23;;;;;;;15.50;9.85;;;;;;;6.16;61.07;100238.34;4453355;32;34462;-86
2021/03/24 01:05:51;;;;;;;19.58;10.35;;;;;;;6.03;61.35;100243.19;4453962;32;34020;-86
2021/03/24 01:08:22;;;;;;;14.10;9.75;;;;;;;6.35;60.40;100236.19;4455723;32;35326;-86
2021/03/24 01:10:52;;;;;;;14.00;9.65;;;;;;;6.12;61.27;100238.25;4441709;32;34568;-86
2021/03/24 01:13:19;;;;;;;16.45;9.63;;;;;;;6.29;60.64;100236.06;4441213;32;33044;-86
2021/03/24 01:15:46;;;;;;;15.13;10.20;;;;;;;6.11;61.18;100243.34;4441144;32;33887;-85
2021/03/24 01:18:16;;;;;;;16.37;10.30;;;;;;;5.92;61.87;100243.78;4454032;32;34374;-85
2021/03/24 01:20:44;;;;;;;14.40;9.93;;;;;;;6.27;60.42;100236.87;4441442;32;32847;-85
2021/03/24 01:23:11;;;;;;;15.70;9.52;;;;;;;6.27;60.28;100242.03;4453591;32;34183;-86
2021/03/24 01:25:39;;;;;;;15.90;10.00;;;;;;;6.04;61.19;100244.94;4441137;32;33631;-85
2021/03/24 01:28:10;;;;;;;15.25;10.38;;;;;;;6.02;61.36;100250.87;4453830;32;34607;-86
2021/03/24 01:30:37;;;;;;;16.85;10.55;;;;;;;6.31;60.45;100254.19;4453891;32;33986;-86
2021/03/24 01:33:05;;;;;;;15.38;9.98;;;;;;;6.52;59.74;100254.69;4441117;32;35382;-86
2021/03/24 01:35:34;;;;;;;15.65;10.40;;;;;;;6.42;59.95;100240.69;4453835;32;34609;-86
2021/03/24 01:38:01;;;;;;;16.35;10.68;;;;;;;6.01;61.33;100239.69;4454259;32;34224;-85
2021/03/24 01:40:33;;;;;;;15.63;9.95;;;;;;;5.84;62.07;100233.25;4441024;32;33403;-86
2021/03/24 01:43:04;;;;;;;16.95;10.90;;;;;;;6.11;61.13;100239.06;4440883;32;34175;-86
2021/03/24 01:45:32;;;;;;;15.13;9.70;;;;;;;5.82;61.83;100234.88;4452823;32;33347;-85
2021/03/24 01:48:12;;;;;;;19.75;10.85;;;;;;;5.75;62.22;100229.53;4453713;32;35429;-85
2021/03/24 01:50:41;;;;;;;16.85;10.23;;;;;;;5.63;62.69;100240.41;4441315;32;33870;-85
2021/03/24 01:53:18;;;;;;;17.17;10.90;;;;;;;5.65;62.78;100243.00;4453930;32;33959;-86
2021/03/24 01:55:45;;;;;;;15.65;10.38;;;;;;;5.71;62.56;100243.16;4441005;32;33668;-86
2021/03/24 01:58:15;;;;;;;18.40;11.02;;;;;;;5.74;62.34;100233.81;4453680;32;34991;-85
2021/03/24 02:00:49;;;;;;;15.32;9.65;;;;;;;5.57;63.07;100234.19;4453941;32;34067;-85
2021/03/24 02:03:21;;;;;;;15.52;10.88;;;;;;;5.57;63.05;100229.91;4453767;32;34154;-85
2021/03/24 02:05:49;;;;;;;18.17;11.00;;;;;;;5.54;63.17;100229.81;4440210;32;33706;-86
2021/03/24 02:08:21;;;;;;;17.08;10.43;;;;;;;5.65;62.75;100230.13;4440786;32;33950;-86
2021/03/24 02:10:52;;;;;;;18.37;10.60;;;;;;;5.59;62.87;100220.50;4440798;32;34909;-86
2021/03/24 02:13:41;;;;;;;18.50;10.77;;;;;;;5.68;62.71;100228.47;4440612;32;34558;-86
2021/03/24 02:16:25;;;;;;;16.77;11.07;;;;;;;5.46;63.42;100239.97;4453320;32;33747;-85
2021/03/24 02:18:54;;;;;;;18.67;10.90;;;;;;;5.30;64.23;100239.50;4428214;32;35388;-86
2021/03/24 02:21:25;;;;;;;17.35;11.73;;;;;;;5.23;64.56;100250.47;4440926;32;34110;-86
2021/03/24 02:24:03;;;;;;;16.75;10.75;;;;;;;5.63;63.13;100244.69;4440718;32;33424;-86
2021/03/24 02:27:00;;;;;;;16.58;10.85;;;;;;;5.78;62.53;100245.94;4428172;32;32544;-86
2021/03/24 02:29:28;;;;;;;19.23;10.93;;;;;;;5.86;62.09;100252.22;4452187;32;34280;-85
2021/03/24 02:31:57;;;;;;;19.98;11.15;;;;;;;5.85;62.20;100253.03;4453511;32;33673;-86
2021/03/24 02:34:27;;;;;;;18.10;11.12;;;;;;;6.24;60.94;100248.00;4428463;32;32860;-86
2021/03/24 02:36:55;;;;;;;16.80;10.65;;;;;;;6.06;61.11;100256.16;4442144;32;34460;-86
2021/03/24 02:39:24;;;;;;;20.73;11.60;;;;;;;5.96;61.76;100249.03;4440545;32;34365;-86
2021/03/24 02:41:53;;;;;;;18.30;11.45;;;;;;;6.12;61.18;100255.44;4453489;32;34193;-86
2021/03/24 02:44:21;;;;;;;16.92;10.80;;;;;;;6.13;60.95;100249.47;4440606;32;33311;-85
2021/03/24 02:46:48;;;;;;;16.90;10.75;;;;;;;6.18;61.08;100247.84;4453545;32;33399;-86
2021/03/24 02:49:16;;;;;;;17.92;11.35;;;;;;;6.26;60.78;100260.94;4440630;32;33159;-86
2021/03/24 02:51:45;;;;;;;18.58;11.73;;;;;;;6.24;60.95;100265.22;4440698;32;33599;-86
2021/03/24 02:54:15;;;;;;;20.00;11.52;;;;;;;6.37;60.71;100269.84;4440588;32;35508;-85
2021/03/24 02:56:42;;;;;;;17.92;11.43;;;;;;;6.44;60.41;100264.84;4440942;32;33935;-86
2021/03/24 02:59:11;;;;;;;17.67;11.30;;;;;;;6.31;60.91;100274.84;4453308;32;35484;-85
2021/03/24 03:01:39;;;;;;;17.73;11.10;;;;;;;6.22;61.20;100264.31;4440324;32;33886;-86
2021/03/24 03:04:18;;;;;;;20.90;12.73;;;;;;;6.28;61.21;100277.34;4440415;32;33087;-85
2021/03/24 03:06:46;;;;;;;21.12;11.38;;;;;;;6.25;61.32;100270.44;4440404;32;33818;-85
2021/03/24 03:09:23;;;;;;;21.95;11.95;;;;;;;6.42;60.95;100265.66;4427476;32;33526;-86
2021/03/24 03:12:09;;;;;;;19.67;11.23;;;;;;;6.56;60.53;100272.03;4454118;32;33946;-86
2021/03/24 03:15:13;;;;;;;19.00;11.77;;;;;;;6.51;60.63;100279.66;4440432;32;33274;-85
2021/03/24 03:17:53;;;;;;;17.25;11.00;;;;;;;6.47;60.79;100282.13;4450734;32;34523;-86
2021/03/24 03:20:33;;;;;;;19.40;11.02;;;;;;;6.48;60.69;100283.88;4440300;32;35092;-85
2021/03/24 03:23:08;;;;;;;19.05;12.07;;;;;;;6.40;60.85;100281.09;4453614;32;33883;-85
2021/03/24 03:25:37;;;;;;;17.85;11.52;;;;;;;6.36;61.11;100283.59;4440111;32;33214;-85
2021/03/24 03:28:09;;;;;;;19.75;11.35;;;;;;;6.17;61.72;100289.13;4440030;32;35277;-86
2021/03/24 03:30:39;;;;;;;20.30;12.43;;;;;;;6.24;61.63;100278.13;4453093;32;33965;-85
2021/03/24 03:33:10;;;;;;;17.42;11.68;;;;;;;6.22;61.62;100277.22;4440155;32;35471;-86
2021/03/24 03:35:39;;;;;;;22.73;12.05;;;;;;;6.37;61.02;100280.19;4440111;32;32100;-85
2021/03/24 03:38:11;;;;;;;17.50;11.35;;;;;;;6.05;62.16;100284.53;4452650;32;33951;-85
2021/03/24 03:40:40;;;;;;;18.15;11.23;;;;;;;5.78;62.75;100287.25;4452705;32;34280;-85
2021/03/24 03:43:10;;;;;;;18.65;11.95;;;;;;;6.02;62.07;100285.34;4452702;32;33846;-86
2021/03/24 03:45:39;;;;;;;16.40;10.82;;;;;;;6.04;61.97;100286.25;4439859;32;33408;-85
2021/03/24 03:48:12;;;;;;;16.92;11.12;;;;;;;6.24;61.15;100289.34;4439691;32;34143;-85
2021/03/24 03:50:40;;;;;;;17.15;10.88;;;;;;;6.24;61.25;100291.91;4452761;32;34454;-85
2021/03/24 03:53:14;;;;;;;17.20;11.23;;;;;;;6.42;60.39;100299.25;4439898;32;33633;-86
2021/03/24 03:55:49;;;;;;;19.98;11.30;;;;;;;6.27;60.82;100298.88;4439606;32;34214;-86
2021/03/24 03:58:42;;;;;;;18.23;11.23;;;;;;;6.64;59.77;100288.56;4452327;32;33651;-86
2021/03/24 04:01:10;;;;;;;;;;;;;;;6.53;59.96;100290.03;4427262;32;35009;-86
2021/03/24 04:03:46;;;;;;;18.17;11.38;;;;;;;6.30;60.52;100291.19;4443243;32;33943;-86
2021/03/24 04:06:18;;;;;;;21.33;12.18;;;;;;;6.48;60.15;100305.44;4439763;32;34349;-86
2021/03/24 04:08:47;;;;;;;17.50;10.98;;;;;;;6.05;61.21;100294.87;4439568;32;34317;-86
2021/03/24 04:11:18;;;;;;;17.35;11.57;;;;;;;6.29;60.59;100297.19;4452345;32;34305;-84
2021/03/24 04:13:51;;;;;;;19.67;11.57;;;;;;;6.02;61.19;100298.25;4452250;32;34475;-85
2021/03/24 04:16:18;;;;;;;17.73;11.10;;;;;;;6.05;61.15;100302.63;4439651;32;33472;-86
2021/03/24 04:18:59;;;;;;;17.33;11.00;;;;;;;6.37;60.12;100300.84;4439323;32;33624;-86
2021/03/24 04:21:28;;;;;;;18.55;12.02;;;;;;;6.31;60.15;100306.72;4439527;32;34546;-86
2021/03/24 04:23:59;;;;;;;16.23;10.75;;;;;;;6.19;60.60;100305.53;4439195;32;33644;-86
2021/03/24 04:26:44;;;;;;;20.08;11.90;;;;;;;6.35;59.79;100308.53;4452009;32;33198;-85
2021/03/24 04:29:18;;;;;;;17.30;11.35;;;;;;;6.31;59.81;100317.06;4439583;32;34917;-86
2021/03/24 04:31:49;;;;;;;19.12;11.18;;;;;;;6.03;60.95;100310.34;4441610;32;35233;-86
2021/03/24 04:34:17;;;;;;;16.45;10.23;;;;;;;6.39;59.74;100317.25;4428775;32;35249;-86
2021/03/24 04:37:00;;;;;;;16.08;10.68;;;;;;;6.37;59.38;100308.59;4441353;32;33394;-86
2021/03/24 04:40:09;;;;;;;17.92;11.18;;;;;;;6.17;60.05;100312.38;4454485;32;33936;-85
2021/03/24 04:42:42;;;;;;;17.75;10.02;;;;;;;6.19;59.90;100305.53;4366874;32;36232;-86
2021/03/24 04:45:45;;;;;;;14.20;10.13;;;;;;;6.51;58.84;100314.97;4445625;32;33977;-86
2021/03/24 04:48:18;;;;;;;17.20;11.07;;;;;;;6.49;58.74;100314.06;4433671;32;31977;-86
2021/03/24 04:51:11;;;;;;;15.95;9.50;;;;;;;6.69;58.12;100310.22;4441738;32;33762;-86
2021/03/24 04:53:43;;;;;;;15.17;10.33;;;;;;;6.72;57.82;100315.47;4454121;32;34373;-85
2021/03/24 04:56:12;;;;;;;16.02;10.05;;;;;;;6.66;58.34;100317.91;4441482;32;34724;-86
2021/03/24 04:58:41;;;;;;;16.83;10.57;;;;;;;6.81;57.46;100316.56;4441387;32;33231;-85
2021/03/24 05:01:14;;;;;;;20.90;11.27;;;;;;;6.61;57.99;100322.09;4454099;32;34829;-86
2021/03/24 05:03:44;;;;;;;15.90;10.95;;;;;;;6.61;58.02;100327.25;4441412;32;35718;-86
2021/03/24 05:06:38;;;;;;;16.40;11.65;;;;;;;6.29;59.07;100328.19;4441287;32;32984;-86
2021/03/24 05:09:07;;;;;;;18.15;11.00;;;;;;;6.75;57.82;100325.91;4441280;32;33507;-86
2021/03/24 05:12:02;;;;;;;17.87;10.85;;;;;;;6.68;58.00;100326.59;4455484;32;33343;-86
2021/03/24 05:14:38;;;;;;;16.20;10.18;;;;;;;6.72;57.74;100329.28;4454099;32;34056;-85
2021/03/24 05:17:11;;;;;;;14.93;9.90;;;;;;;6.83;57.34;100332.97;4440921;32;33820;-86
2021/03/24 05:19:39;;;;;;;16.15;9.90;;;;;;;6.80;57.33;100338.06;4440588;32;34151;-86
2021/03/24 05:22:26;;;;;;;13.32;9.82;;;;;;;6.94;57.07;100342.69;4454502;32;33334;-86
2021/03/24 05:25:06;;;;;;;13.88;9.55;;;;;;;6.86;57.35;100339.94;4453944;32;35018;-85
2021/03/24 05:27:45;;;;;;;16.60;10.05;;;;;;;6.85;57.42;100338.16;4453579;32;33992;-86
2021/03/24 05:30:16;;;;;;;14.90;10.13;;;;;;;6.68;58.10;100344.69;4442174;32;34133;-85
2021/03/24 05:32:47;;;;;;;14.80;9.80;;;;;;;6.86;57.48;100344.22;4454061;32;33964;-86
2021/03/24 05:35:26;;;;;;;14.07;9.75;;;;;;;6.90;56.90;100344.31;4441178;32;35170;-86
2021/03/24 05:37:53;;;;;;;13.77;9.38;;;;;;;6.81;57.29;100342.41;4454081;32;35325;-85
2021/03/24 05:40:48;;;;;;;17.12;9.68;;;;;;;6.83;57.10;100340.75;4453945;32;33700;-86
2021/03/24 05:43:34;;;;;;;14.93;9.50;;;;;;;6.81;57.45;100338.94;4453995;32;34665;-86
2021/03/24 05:46:14;;;;;;;14.90;9.80;;;;;;;6.89;57.67;100332.25;4453688;32;34294;-86
2021/03/24 05:48:53;;;;;;;15.98;10.45;;;;;;;6.90;57.20;100336.56;4454809;32;33514;-86
2021/03/24 05:51:40;;;;;;;14.55;9.68;;;;;;;7.09;56.59;100338.72;4453471;32;33476;-85
2021/03/24 05:54:30;;;;;;;16.60;10.05;;;;;;;7.19;56.02;100325.16;4428422;32;32995;-86
2021/03/24 05:57:19;;;;;;;15.30;9.95;;;;;;;7.07;56.41;100329.19;4453448;32;35348;-86
2021/03/24 06:00:12;;;;;;;18.17;10.20;;;;;;;6.95;56.75;100332.37;4440805;32;33774;-86
2021/03/24 06:02:43;;;;;;;14.55;9.00;;;;;;;7.13;56.41;100337.94;4441124;32;34042;-86
2021/03/24 06:06:00;;;;;;;14.65;9.68;;;;;;;7.39;56.02;100348.87;4453729;32;33679;-86
2021/03/24 06:09:06;;;;;;;19.00;10.05;;;;;;;7.36;55.87;100344.50;4424348;32;34259;-86
2021/03/24 06:11:43;;;;;;;17.67;8.80;;;;;;;7.31;55.67;100340.97;4417701;32;34008;-86
2021/03/24 06:14:35;;;;;;;17.45;9.00;;;;;;;7.07;56.62;100345.59;4453819;32;33095;-86
2021/03/24 06:17:17;;;;;;;16.40;9.50;;;;;;;7.49;55.62;100351.69;4453446;32;34974;-86
2021/03/24 06:19:48;;;;;;;14.25;9.35;;;;;;;7.53;55.35;100350.88;4440957;32;34310;-86
2021/03/24 06:22:43;;;;;;;13.82;9.73;;;;;;;7.56;55.32;100354.41;4453468;32;32886;-86
2021/03/24 06:25:31;;;;;;;13.35;9.43;;;;;;;7.38;55.82;100353.19;4454821;32;33256;-86
2021/03/24 06:28:01;;;;;;;18.67;9.80;;;;;;;7.44;55.85;100363.66;4455058;32;34583;-85
2021/03/24 06:30:34;;;;;;;16.35;9.65;;;;;;;7.53;55.58;100366.41;4440767;32;35329;-85
2021/03/24 06:33:14;;;;;;;12.98;8.90;;;;;;;7.43;55.82;100361.91;4454938;32;33978;-85
2021/03/24 06:35:54;;;;;;;17.05;9.38;;;;;;;7.72;54.97;100361.63;4441325;32;33710;-85
2021/03/24 06:38:33;;;;;;;13.20;9.05;;;;;;;7.98;54.67;100358.72;4440780;32;35558;-86
2021/03/24 06:41:18;;;;;;;14.57;9.10;;;;;;;8.18;54.09;100367.72;4440274;32;34476;-86
2021/03/24 06:44:16;;;;;;;15.90;9.93;;;;;;;8.42;53.03;100367.31;4428252;32;33107;-86
2021/03/24 06:46:43;;;;;;;16.92;10.05;;;;;;;8.17;53.87;100378.06;4453599;32;33179;-86
2021/03/24 06:49:34;;;;;;;13.00;8.68;;;;;;;8.04;54.16;100378.66;4454339;32;34598;-86
2021/03/24 06:52:16;;;;;;;13.65;8.98;;;;;;;8.19;53.57;100384.16;4452963;32;34319;-85
2021/03/24 06:55:09;;;;;;;13.25;8.80;;;;;;;8.68;52.85;100383.31;4453663;32;34293;-85
2021/03/24 06:58:04;;;;;;;14.73;9.10;;;;;;;8.62;52.89;100388.41;4454123;32;32711;-85
2021/03/24 07:00:35;;;;;;;14.75;8.65;;;;;;;8.61;52.60;100392.72;4453190;32;34834;-85
2021/03/24 07:03:26;;;;;;;14.15;9.40;;;;;;;9.01;51.58;100390.78;4454808;32;33896;-85
2021/03/24 07:06:02;;;;;;;13.48;8.93;;;;;;;8.71;52.62;100386.84;4453355;32;33972;-85
2021/03/24 07:08:47;;;;;;;15.18;9.57;;;;;;;8.77;52.47;100392.09;4440682;32;33223;-85
2021/03/24 07:11:33;;;;;;;16.52;9.02;;;;;;;8.88;52.49;100396.59;4454511;32;33302;-85
2021/03/24 07:14:19;;;;;;;14.90;8.70;;;;;;;9.01;51.93;100393.37;4453176;32;34216;-84
2021/03/24 07:17:18;;;;;;;16.05;9.25;;;;;;;8.78;52.18;100401.66;4453055;32;32948;-84
2021/03/24 07:20:12;;;;;;;15.63;9.07;;;;;;;8.94;51.59;100391.53;4453122;32;31699;-85
2021/03/24 07:22:59;;;;;;;13.82;9.55;;;;;;;8.99;51.58;100392.44;4453979;32;33674;-84
2021/03/24 07:25:35;;;;;;;16.85;9.60;;;;;;;9.30;51.24;100397.25;4453261;32;33970;-84
2021/03/24 07:28:06;;;;;;;14.10;9.52;;;;;;;9.45;50.92;100393.16;4453871;32;34094;-84
2021/03/24 07:30:35;;;;;;;15.10;10.18;;;;;;;9.19;50.85;100397.09;4451989;32;32581;-83
2021/03/24 07:33:34;;;;;;;15.15;9.75;;;;;;;9.24;51.16;100399.75;4456938;32;33616;-84
2021/03/24 07:36:21;;;;;;;14.00;9.77;;;;;;;9.50;50.07;100393.22;4439985;32;34110;-84
2021/03/24 07:39:16;;;;;;;14.07;8.82;;;;;;;9.09;51.25;100403.00;4454754;32;34529;-84
2021/03/24 07:41:55;;;;;;;14.65;9.55;;;;;;;9.67;50.41;100396.03;4452795;32;34015;-83
2021/03/24 07:44:35;;;;;;;16.85;9.52;;;;;;;9.50;49.95;100398.41;4453875;32;33357;-84
2021/03/24 07:47:16;;;;;;;15.45;9.23;;;;;;;9.64;49.82;100402.06;4440162;32;34400;-84
2021/03/24 07:50:03;;;;;;;14.05;8.98;;;;;;;9.94;48.91;100398.94;4452758;32;33732;-83
2021/03/24 07:52:58;;;;;;;15.52;9.68;;;;;;;9.83;48.94;100398.84;4454265;32;33227;-84
2021/03/24 07:55:51;;;;;;;13.48;9.82;;;;;;;9.95;48.78;100406.78;4452656;32;33993;-84
2021/03/24 07:59:00;;;;;;;17.95;9.77;;;;;;;9.92;48.45;100406.75;4461784;32;34365;-84
2021/03/24 08:01:34;;;;;;;13.20;8.65;;;;;;;10.08;48.04;100405.19;4440135;32;33977;-84
2021/03/24 08:04:45;;;;;;;14.95;8.85;;;;;;;9.64;48.88;100420.22;4452807;32;33164;-84
2021/03/24 08:07:49;;;;;;;13.02;9.32;;;;;;;9.68;48.80;100421.13;4400901;32;34777;-85
2021/03/24 08:10:29;;;;;;;12.65;8.98;;;;;;;10.03;48.04;100410.31;4392147;32;34279;-84
2021/03/24 08:13:53;;;;;;;16.92;9.70;;;;;;;10.15;47.22;100418.28;4442988;32;34092;-84
2021/03/24 08:16:39;;;;;;;15.02;9.35;;;;;;;10.31;47.13;100410.69;4442882;32;33269;-85
2021/03/24 08:19:33;;;;;;;16.75;9.90;;;;;;;10.18;47.01;100418.34;4441518;32;33818;-85
2021/03/24 08:22:22;;;;;;;18.75;10.07;;;;;;;10.08;47.30;100421.66;4455365;32;34052;-85
2021/03/24 08:25:17;;;;;;;19.98;11.65;;;;;;;9.94;47.58;100418.03;4455343;32;33465;-84
2021/03/24 08:28:13;;;;;;;16.52;10.68;;;;;;;10.30;47.25;100416.72;4459219;32;34390;-86
2021/03/24 08:30:56;;;;;;;21.00;10.90;;;;;;;10.39;46.93;100419.44;4454154;32;33726;-85
2021/03/24 08:33:44;;;;;;;17.10;10.40;;;;;;;10.44;46.23;100425.53;4467314;32;34216;-84
2021/03/24 08:36:46;;;;;;;15.88;10.13;;;;;;;10.55;45.81;100426.53;4469427;32;34687;-85
2021/03/24 08:39:52;;;;;;;16.58;10.02;;;;;;;10.20;46.73;100424.41;4462692;32;34024;-85
2021/03/24 08:42:44;;;;;;;18.02;10.48;;;;;;;9.87;47.39;100433.50;4446143;32;33460;-85
2021/03/24 08:45:25;;;;;;;14.45;9.73;;;;;;;10.28;46.69;100419.31;4469974;32;35334;-85
2021/03/24 08:47:57;;;;;;;16.92;9.75;;;;;;;10.45;46.71;100420.37;4440834;32;33479;-86
2021/03/24 08:50:37;;;;;;;19.23;10.20;;;;;;;10.38;46.86;100430.69;4454267;32;33062;-85
2021/03/24 08:53:10;;;;;;;18.95;10.02;;;;;;;10.55;46.14;100419.59;4454094;32;35796;-85
2021/03/24 08:56:00;;;;;;;18.40;10.07;;;;;;;10.34;46.35;100426.31;4455240;32;35545;-85
2021/03/24 08:59:20;;;;;;;16.73;9.88;;;;;;;10.38;46.77;100420.28;4454195;32;34109;-85
2021/03/24 09:01:58;;;;;;;14.45;9.77;;;;;;;10.68;45.37;100424.06;4454241;32;34086;-85
2021/03/24 09:04:44;;;;;;;19.12;10.75;;;;;;;10.71;45.81;100416.28;4454084;32;33824;-85
2021/03/24 09:07:42;;;;;;;14.77;9.02;;;;;;;10.76;45.67;100414.59;4457872;32;34348;-85
2021/03/24 09:10:40;;;;;;;16.00;8.82;;;;;;;10.59;45.74;100410.09;4469523;32;32610;-85
2021/03/24 09:13:36;;;;;;;14.77;9.80;;;;;;;10.61;45.92;100413.56;4469535;32;32997;-85
2021/03/24 09:16:33;;;;;;;19.65;9.98;;;;;;;11.08;45.54;100401.81;4443548;32;32095;-84
2021/03/24 09:19:07;;;;;;;17.85;9.73;;;;;;;11.16;44.73;100394.94;4469460;32;34276;-86
2021/03/24 09:22:29;;;;;;;14.73;9.60;;;;;;;11.20;44.28;100396.69;4470731;32;33569;-85
2021/03/24 09:25:05;;;;;;;13.82;9.45;;;;;;;10.91;44.75;100395.59;4394235;32;33223;-85
2021/03/24 09:27:40;;;;;;;16.52;9.48;;;;;;;11.01;44.16;100404.34;4464874;32;34213;-85
2021/03/24 09:30:29;;;;;;;13.32;8.45;;;;;;;11.04;43.90;100397.47;4468433;32;34467;-85
2021/03/24 09:33:23;;;;;;;16.02;8.82;;;;;;;11.07;44.21;100396.63;4469361;32;35586;-85
2021/03/24 09:36:10;;;;;;;16.27;9.20;;;;;;;11.10;44.07;100397.50;4470528;32;33911;-86
2021/03/24 09:38:38;;;;;;;17.23;9.32;;;;;;;10.93;44.60;100396.53;4468463;32;34919;-85
2021/03/24 09:41:18;;;;;;;14.07;8.63;;;;;;;10.98;44.00;100397.44;4456533;32;33910;-85
2021/03/24 09:43:49;;;;;;;16.58;9.13;;;;;;;11.00;44.38;100398.31;4470477;32;34004;-85
2021/03/24 09:46:42;;;;;;;12.70;8.80;;;;;;;11.30;43.13;100395.91;4456459;32;32433;-86
2021/03/24 09:49:29;;;;;;;14.30;8.18;;;;;;;11.08;44.12;100396.59;4469525;32;33869;-86
2021/03/24 09:52:35;;;;;;;12.10;7.97;;;;;;;11.40;43.28;100394.22;4469107;32;34234;-85
2021/03/24 09:55:08;;;;;;;14.82;8.80;;;;;;;11.45;43.26;100401.22;4443534;32;31974;-85
2021/03/24 09:57:58;;;;;;;14.32;8.98;;;;;;;11.45;43.09;100398.62;4469321;32;34110;-85
2021/03/24 10:00:26;;;;;;;11.65;7.65;;;;;;;11.14;43.43;100401.88;4468778;32;34900;-85
2021/03/24 10:03:16;;;;;;;16.27;8.95;;;;;;;11.21;42.79;100398.47;4469122;32;34356;-85
2021/03/24 10:05:50;;;;;;;13.82;8.15;;;;;;;11.08;43.54;100393.16;4470256;32;33799;-85
2021/03/24 10:08:23;;;;;;;12.50;8.23;;;;;;;11.05;43.74;100387.94;4453316;32;33176;-84
2021/03/24 10:10:51;;;;;;;12.00;8.25;;;;;;;11.49;42.42;100384.72;4453136;32;34748;-84
2021/03/24 10:13:27;;;;;;;11.93;7.37;;;;;;;11.49;42.42;100378.66;4450314;32;34200;-84
2021/03/24 10:16:09;;;;;;;15.55;8.38;;;;;;;11.21;43.30;100385.44;4455715;32;35247;-84
2021/03/24 10:19:02;;;;;;;15.85;10.00;;;;;;;11.70;42.35;100389.19;4455875;32;33199;-84
2021/03/24 10:21:42;;;;;;;25.12;14.32;;;;;;;11.38;43.32;100394.22;4456495;32;34497;-84
2021/03/24 10:24:19;;;;;;;27.33;14.82;;;;;;;11.47;44.50;100396.87;4447999;32;34065;-85
2021/03/24 10:26:55;;;;;;;20.67;14.13;;;;;;;10.66;45.97;100397.16;4454223;31;33572;-85
2021/03/24 10:29:58;;;;;;;25.73;14.15;;;;;;;10.39;46.83;100399.47;4471554;31;34552;-83
2021/03/24 10:32:34;;;;;;;23.17;13.93;;;;;;;11.06;45.90;100400.94;4479263;31;33530;-85
2021/03/24 10:35:41;;;;;;;23.73;14.20;;;;;;;11.01;45.51;100399.16;4475974;31;33714;-85
2021/03/24 10:38:29;;;;;;;19.80;12.93;;;;;;;11.27;44.97;100393.28;4478318;31;34832;-84
2021/03/24 10:41:05;;;;;;;21.17;12.93;;;;;;;11.38;44.77;100398.56;4456775;32;33265;-85
2021/03/24 10:43:48;;;;;;;28.10;14.95;;;;;;;11.47;44.39;100402.09;4462323;31;33827;-84
2021/03/24 10:46:26;;;;;;;20.30;13.13;;;;;;;11.39;44.69;100393.34;4476338;32;35259;-84
2021/03/24 10:49:02;;;;;;;18.75;11.70;;;;;;;11.10;44.98;100394.88;4471641;32;34705;-84
2021/03/24 10:51:36;;;;;;;24.45;13.55;;;;;;;11.55;44.54;100395.16;4458609;32;32701;-84
2021/03/24 10:54:12;;;;;;;22.77;14.85;;;;;;;11.64;43.95;100396.09;4484127;31;33397;-84
2021/03/24 10:57:03;;;;;;;19.67;11.12;;;;;;;11.70;44.54;100397.03;4487787;31;34415;-85
2021/03/24 10:59:46;;;;;;;15.77;10.27;;;;;;;11.81;43.47;100391.88;4473970;31;33654;-84
2021/03/24 11:02:28;;;;;;;13.85;9.65;;;;;;;11.95;43.55;100385.84;4486923;31;34193;-84
2021/03/24 11:05:20;;;;;;;16.12;10.07;;;;;;;11.87;43.12;100382.34;4486732;31;34003;-84
2021/03/24 11:08:00;;;;;;;16.98;10.65;;;;;;;11.96;42.75;100377.16;4463203;32;35130;-84
2021/03/24 11:10:37;;;;;;;15.38;9.52;;;;;;;12.04;42.31;100377.19;4455827;32;33660;-84
2021/03/24 11:13:30;;;;;;;17.67;9.77;;;;;;;12.15;42.35;100389.37;4455390;32;33631;-84
2021/03/24 11:16:03;;;;;;;15.30;9.10;;;;;;;12.37;41.98;100386.81;4455748;32;33787;-84
2021/03/24 11:18:52;;;;;;;14.75;9.90;;;;;;;12.43;41.60;100379.84;4455436;32;35247;-84
2021/03/24 11:21:56;;;;;;;15.40;9.25;;;;;;;12.11;41.90;100384.16;4480756;31;33967;-84
2021/03/24 11:24:30;;;;;;;20.98;14.63;;;;;;;12.41;41.29;100386.81;4498731;31;33248;-83
2021/03/24 11:27:20;;;;;;;15.95;9.05;;;;;;;12.11;41.81;100386.75;4445162;32;33216;-84
2021/03/24 11:30:03;;;;;;;15.95;8.65;;;;;;;12.17;41.42;100378.97;4458000;32;34482;-84
2021/03/24 11:32:37;;;;;;;16.55;10.18;;;;;;;11.98;41.97;100379.78;4442556;32;33946;-84
2021/03/24 11:35:10;;;;;;;14.07;9.32;;;;;;;12.00;42.05;100378.03;4455395;32;34101;-84
2021/03/24 11:37:52;;;;;;;13.65;8.82;;;;;;;11.83;42.03;100375.38;4443013;32;34676;-84
2021/03/24 11:40:27;;;;;;;15.32;9.40;;;;;;;12.03;41.69;100372.81;4444815;32;34359;-84
2021/03/24 11:43:01;;;;;;;15.57;9.35;;;;;;;12.05;41.86;100363.28;4457607;32;34398;-84
2021/03/24 11:45:32;;;;;;;15.23;9.75;;;;;;;12.06;41.98;100362.41;4445392;32;33285;-84
2021/03/24 11:48:09;;;;;;;17.45;11.63;;;;;;;12.06;41.75;100357.19;4459588;32;33574;-84
2021/03/24 11:50:43;;;;;;;15.68;9.60;;;;;;;12.18;41.49;100358.09;4459318;32;34266;-83
2021/03/24 11:53:14;;;;;;;15.65;10.15;;;;;;;12.11;41.67;100356.34;4458581;31;33839;-83
2021/03/24 11:55:55;;;;;;;19.53;10.57;;;;;;;12.09;41.72;100359.81;4502503;31;33319;-83
2021/03/24 11:58:44;;;;;;;13.70;9.45;;;;;;;11.96;41.70;100358.00;4461307;32;35627;-84
2021/03/24 12:01:21;;;;;;;22.90;11.27;;;;;;;11.79;42.30;100357.12;4457012;32;34327;-84
2021/03/24 12:04:00;;;;;;;14.10;9.00;;;;;;;11.88;42.09;100359.75;4457281;32;34092;-84
2021/03/24 12:06:59;;;;;;;13.52;9.38;;;;;;;11.90;42.07;100355.41;4444284;32;33973;-84
2021/03/24 12:09:37;;;;;;;15.25;9.90;;;;;;;11.69;42.35;100356.22;4456888;32;32564;-84
2021/03/24 12:12:05;;;;;;;15.85;10.45;;;;;;;12.04;41.96;100345.87;4460540;31;35159;-84
2021/03/24 12:14:40;;;;;;;17.15;10.32;;;;;;;11.93;42.08;100343.25;4472512;32;33814;-85